^^
B2 Weather Station Historical Data
Daily Summary for December 31, 2018 Units:  English    Metric   Both
Daily Weekly Monthly Yearly Custom
  High: Low: Average:
Temperature: 40.2 °F 31.6 °F 36.4 °F
Dew Point: 38.9 °F 29.5 °F 34.9 °F
Humidity: 95% 91% 94%
Wind Speed: 13.8mph 0mph 4.2mph
Wind Gust: 7.7mph - -
Wind- - South
Pressure: 30.01 in 29.43 in -
Precipitation: 0.82 in    
Historical Graphs
 
 
Tabular Data for December 31, 2018
Time Temperature Dew Point Pressure Wind Wind Speed Wind Gust Humidity Rainfall Rate (Hourly) solar
00:04 31.7 °F 29.6 °F 30.01 in SSE 3.5 mph 1.1 mph 92% 0 in 0.00 W/m2
00:09 31.6 °F 29.5 °F 30.00 in SE 3.5 mph 1 mph 92% 0 in 0.00 W/m2
00:14 31.7 °F 29.6 °F 30.00 in SE 3.5 mph 0.3 mph 92% 0 in 0.00 W/m2
00:19 31.8 °F 29.7 °F 30.00 in SE 3.5 mph 1.8 mph 92% 0 in 0.00 W/m2
00:24 32 °F 29.9 °F 30.00 in SE 2.3 mph 2.3 mph 92% 0 in 0.00 W/m2
00:29 32.3 °F 30.2 °F 29.99 in SE 3.5 mph 2.3 mph 92% 0 in 0.00 W/m2
00:34 32.4 °F 30.3 °F 29.99 in SE 4 mph 2.9 mph 92% 0 in 0.00 W/m2
00:39 32.6 °F 30.5 °F 29.99 in SSE 3.5 mph 2.8 mph 92% 0 in 0.00 W/m2
00:44 32.9 °F 30.8 °F 29.99 in SSE 3.5 mph 2.5 mph 92% 0 in 0.00 W/m2
00:49 33.1 °F 31 °F 29.99 in SSE 3.5 mph 2.7 mph 92% 0 in 0.00 W/m2
00:54 33.2 °F 31.1 °F 29.99 in SE 4 mph 2.9 mph 92% 0 in 0.00 W/m2
00:59 33.2 °F 31.1 °F 29.99 in SE 2.3 mph 1.5 mph 92% 0 in 0.00 W/m2
01:04 33.2 °F 31.1 °F 29.99 in SE 3.5 mph 1.8 mph 92% 0 in 0.00 W/m2
01:09 33.2 °F 31.1 °F 29.99 in SE 3.5 mph 1.3 mph 92% 0 in 0.00 W/m2
01:14 33.2 °F 31.1 °F 29.98 in SE 3.5 mph 1 mph 92% 0 in 0.00 W/m2
01:19 33.3 °F 31 °F 29.99 in SE 2.3 mph 0.7 mph 91% 0 in 0.00 W/m2
01:24 33.3 °F 31 °F 29.98 in North 4 mph 3 mph 91% 0 in 0.00 W/m2
01:29 33.3 °F 31 °F 29.98 in SE 3.5 mph   91% 0 in 0.00 W/m2
01:34 33.4 °F 31.1 °F 29.98 in SE 2.3 mph 0.9 mph 91% 0 in 0.00 W/m2
01:39 33.4 °F 31.1 °F 29.98 in SE 3.5 mph 1.8 mph 91% 0 in 0.00 W/m2
01:44 33.5 °F 31.2 °F 29.99 in SE 3.5 mph 1.3 mph 91% 0 in 0.00 W/m2
01:49 33.5 °F 31.2 °F 29.99 in Calm     91% 0 in 0.00 W/m2
01:54 33.7 °F 31.4 °F 29.99 in SE 4.6 mph 3.4 mph 91% 0 in 0.00 W/m2
01:59 33.7 °F 31.4 °F 29.99 in SE 3.5 mph 2.6 mph 91% 0 in 0.00 W/m2
02:04 33.8 °F 31.5 °F 29.99 in SE 4.6 mph 3.7 mph 91% 0 in 0.00 W/m2
02:09 33.9 °F 31.6 °F 29.99 in ESE 4 mph 3.7 mph 91% 0 in 0.00 W/m2
02:14 33.9 °F 31.6 °F 29.98 in ESE 3.5 mph 3.1 mph 91% 0 in 0.00 W/m2
02:19 33.9 °F 31.6 °F 29.99 in Calm     91% 0 in 0.00 W/m2
02:24 34 °F 31.6 °F 29.99 in Calm     91% 0 in 0.00 W/m2
02:29 34.2 °F 31.8 °F 30.00 in Calm     91% 0 in 0.00 W/m2
02:34 34.4 °F 32 °F 30.00 in Calm     91% 0 in 0.00 W/m2
02:39 34.6 °F 32.2 °F 29.99 in Calm     91% 0 in 0.00 W/m2
02:44 34.6 °F 32.2 °F 29.99 in Calm     91% 0 in 0.00 W/m2
02:49 34.4 °F 32 °F 29.98 in Calm     91% 0 in 0.00 W/m2
02:54 34.2 °F 31.8 °F 29.98 in Calm     91% 0 in 0.00 W/m2
02:59 34.1 °F 31.7 °F 29.97 in Calm     91% 0 in 0.00 W/m2
03:04 34 °F 31.9 °F 29.97 in Calm     92% 0 in 0.00 W/m2
03:09 34 °F 31.9 °F 29.97 in Calm     92% 0 in 0.00 W/m2
03:14 33.9 °F 31.8 °F 29.97 in Calm     92% 0 in 0.00 W/m2
03:19 34 °F 31.9 °F 29.97 in Calm     92% 0 in 0.00 W/m2
03:24 34.1 °F 32 °F 29.97 in Calm     92% 0 in 0.00 W/m2
03:29 34.1 °F 32 °F 29.96 in Calm     92% 0 in 0.00 W/m2
03:34 34.1 °F 32.3 °F 29.96 in Calm     93% 0 in 0.00 W/m2
03:39 34.1 °F 32.3 °F 29.96 in Calm     93% 0 in 0.00 W/m2
03:44 34.1 °F 32.3 °F 29.95 in Calm     93% 0 in 0.00 W/m2
03:49 34.2 °F 32.4 °F 29.95 in Calm     93% 0 in 0.00 W/m2
03:54 34.2 °F 32.4 °F 29.95 in Calm     93% 0 in 0.00 W/m2
03:59 34.2 °F 32.4 °F 29.95 in Calm     93% 0 in 0.00 W/m2
04:04 34.2 °F 32.4 °F 29.94 in Calm     93% 0 in 0.00 W/m2
04:09 34.2 °F 32.4 °F 29.94 in Calm     93% 0 in 0.00 W/m2
04:14 34.3 °F 32.5 °F 29.94 in Calm     93% 0 in 0.00 W/m2
04:19 34.3 °F 32.5 °F 29.93 in SE 3 mph 1.7 mph 93% 0.01 in 0.00 W/m2
04:24 34.4 °F 32.6 °F 29.92 in SE 3.5 mph 0.9 mph 93% 0.02 in 0.00 W/m2
04:29 34.4 °F 32.6 °F 29.92 in SE 4.6 mph 3 mph 93% 0.02 in 0.00 W/m2
04:34 34.4 °F 32.9 °F 29.91 in ESE 3.5 mph 2.2 mph 94% 0.02 in 0.00 W/m2
04:39 34.5 °F 33 °F 29.91 in SE 3.5 mph 1.5 mph 94% 0.03 in 0.00 W/m2
04:44 34.5 °F 33 °F 29.91 in SE 5 mph 3.1 mph 94% 0.03 in 0.00 W/m2
04:49 34.6 °F 33.1 °F 29.91 in SE 3.5 mph 1.3 mph 94% 0.03 in 0.00 W/m2
04:54 34.5 °F 33 °F 29.90 in SE 4.6 mph 2.9 mph 94% 0.03 in 0.00 W/m2
04:59 34.5 °F 33 °F 29.90 in SE 3.5 mph 1.8 mph 94% 0.04 in 0.00 W/m2
05:04 34.5 °F 33 °F 29.89 in SE 4.6 mph 2.1 mph 94% 0.04 in 0.00 W/m2
05:09 34.5 °F 33 °F 29.89 in SE 3.5 mph 2.8 mph 94% 0.04 in 0.00 W/m2
05:14 34.5 °F 33 °F 29.89 in ESE 4.6 mph 3.5 mph 94% 0.04 in 0.00 W/m2
05:19 34.6 °F 33.1 °F 29.89 in SE 4.6 mph 2.4 mph 94% 0.04 in 0.00 W/m2
05:24 34.7 °F 33.2 °F 29.90 in SE 1.2 mph   94% 0.03 in 0.00 W/m2
05:29 34.8 °F 33.2 °F 29.91 in Calm     94% 0.03 in 0.00 W/m2
05:34 34.9 °F 33.3 °F 29.90 in Calm     94% 0.04 in 0.00 W/m2
05:39 35 °F 33.4 °F 29.90 in Calm     94% 0.03 in 0.00 W/m2
05:44 35 °F 33.4 °F 29.91 in Calm     94% 0.04 in 0.00 W/m2
05:49 35.1 °F 33.5 °F 29.91 in Calm     94% 0.04 in 0.00 W/m2
05:54 35.2 °F 33.6 °F 29.91 in Calm     94% 0.04 in 0.00 W/m2
05:59 34.8 °F 33.2 °F 29.91 in Calm     94% 0.04 in 0.00 W/m2
06:04 34.6 °F 33.1 °F 29.91 in Calm     94% 0.04 in 0.00 W/m2
06:09 34.4 °F 32.9 °F 29.90 in Calm     94% 0.04 in 0.00 W/m2
06:14 34.3 °F 32.8 °F 29.90 in Calm     94% 0.05 in 0.00 W/m2
06:19 34.1 °F 32.6 °F 29.90 in Calm     94% 0.04 in 0.00 W/m2
06:24 34.1 °F 32.6 °F 29.90 in NNE 1.2 mph   94% 0.04 in 0.00 W/m2
06:29 34 °F 32.5 °F 29.90 in NNE 3.5 mph 1.2 mph 94% 0.05 in 0.00 W/m2
06:34 34 °F 32.5 °F 29.90 in NE 3.5 mph 0.5 mph 94% 0.04 in 0.00 W/m2
06:39 34 °F 32.5 °F 29.90 in NE 2.3 mph 1.4 mph 94% 0.04 in 0.00 W/m2
06:44 34.1 °F 32.6 °F 29.90 in Calm     94% 0.04 in 0.00 W/m2
06:49 34 °F 32.5 °F 29.90 in Calm     94% 0.04 in 0.00 W/m2
06:54 34 °F 32.5 °F 29.90 in Calm     94% 0.04 in 0.00 W/m2
06:59 34 °F 32.5 °F 29.90 in Calm     94% 0.04 in 0.00 W/m2
07:04 34 °F 32.5 °F 29.89 in Calm     94% 0.04 in 0.00 W/m2
07:09 33.9 °F 32.4 °F 29.89 in NE 2.3 mph 0.4 mph 94% 0.05 in 0.00 W/m2
07:14 33.9 °F 32.4 °F 29.89 in Calm     94% 0.04 in 0.00 W/m2
07:19 33.9 °F 32.4 °F 29.89 in ENE 3 mph 1.7 mph 94% 0.05 in 0.00 W/m2
07:24 33.9 °F 32.4 °F 29.89 in ENE 3.5 mph 0.5 mph 94% 0.05 in 0.00 W/m2
07:29 34 °F 32.5 °F 29.88 in East 3.5 mph 2.3 mph 94% 0.04 in 0.00 W/m2
07:34 34 °F 32.5 °F 29.88 in NE 4.6 mph 2.4 mph 94% 0.05 in 0.00 W/m2
07:39 34.1 °F 32.6 °F 29.88 in ENE 4 mph 2.8 mph 94% 0.05 in 5.00 W/m2
07:44 34.1 °F 32.6 °F 29.88 in ENE 4.6 mph 3 mph 94% 0.05 in 5.00 W/m2
07:49 34.1 °F 32.6 °F 29.88 in ENE 3.5 mph 2.8 mph 94% 0.05 in 7.00 W/m2
07:54 34.1 °F 32.6 °F 29.88 in ENE 3.5 mph 2.2 mph 94% 0.05 in 5.00 W/m2
07:59 34.1 °F 32.6 °F 29.86 in ENE 5.8 mph 3.3 mph 94% 0.04 in 5.00 W/m2
08:04 34.2 °F 32.9 °F 29.86 in East 5 mph 1.6 mph 95% 0.05 in 7.00 W/m2
08:09 34.2 °F 32.9 °F 29.85 in ENE 7 mph 3.4 mph 95% 0.04 in 11.00 W/m2
08:14 34.3 °F 33 °F 29.84 in ENE 9.2 mph 4.8 mph 95% 0.05 in 12.00 W/m2
08:19 34.3 °F 33 °F 29.84 in East 5 mph 3.8 mph 95% 0.04 in 18.00 W/m2
08:24 34.5 °F 33.2 °F 29.84 in ENE 4.6 mph 3 mph 95% 0.05 in 26.00 W/m2
08:29 34.5 °F 33.2 °F 29.84 in East 4.6 mph 2.7 mph 95% 0.05 in 19.00 W/m2
08:34 34.5 °F 33.2 °F 29.83 in East 8.1 mph 5 mph 95% 0.04 in 19.00 W/m2
08:39 34.6 °F 33.3 °F 29.83 in East 6.9 mph 4.4 mph 95% 0.04 in 19.00 W/m2
08:44 34.6 °F 33.3 °F 29.82 in ENE 4.6 mph 1.4 mph 95% 0.04 in 18.00 W/m2
08:49 34.7 °F 33.2 °F 29.82 in ENE 4.6 mph 2.7 mph 94% 0.04 in 19.00 W/m2
08:54 34.7 °F 33.2 °F 29.82 in East 4.6 mph 2.5 mph 94% 0.05 in 18.00 W/m2
08:59 34.8 °F 33.5 °F 29.82 in East 5.8 mph 3.3 mph 95% 0.05 in 14.00 W/m2
09:04 34.9 °F 33.6 °F 29.81 in East 6.9 mph 2.2 mph 95% 0.05 in 19.00 W/m2
09:09 34.9 °F 33.6 °F 29.81 in East 4.6 mph 0.8 mph 95% 0.05 in 21.00 W/m2
09:14 34.9 °F 33.6 °F 29.80 in ENE 4.6 mph 1.8 mph 95% 0.04 in 23.00 W/m2
09:19 35 °F 33.7 °F 29.80 in East 5 mph 1.7 mph 95% 0.05 in 23.00 W/m2
09:24 35 °F 33.7 °F 29.79 in ENE 4.6 mph 2.9 mph 95% 0.04 in 25.00 W/m2
09:29 35.1 °F 33.8 °F 29.79 in East 5.8 mph 3.6 mph 95% 0.04 in 25.00 W/m2
09:34 35.1 °F 33.8 °F 29.78 in ENE 1.2 mph 1 mph 95% 0.04 in 25.00 W/m2
09:39 35.2 °F 33.9 °F 29.77 in East 5 mph 2.3 mph 95% 0.05 in 23.00 W/m2
09:44 35.2 °F 33.9 °F 29.77 in ENE 5.8 mph 4.2 mph 95% 0.04 in 23.00 W/m2
09:49 35.1 °F 33.8 °F 29.75 in ENE 6.9 mph 4.4 mph 95% 0.04 in 23.00 W/m2
09:54 35.1 °F 33.8 °F 29.75 in ENE 6.9 mph 4.3 mph 95% 0.03 in 28.00 W/m2
09:59 35.1 °F 33.8 °F 29.75 in ENE 5.8 mph 5.1 mph 95% 0.03 in 25.00 W/m2
10:04 35.2 °F 33.9 °F 29.75 in East 5.8 mph 4.3 mph 95% 0.02 in 21.00 W/m2
10:09 35.2 °F 33.9 °F 29.75 in East 5.8 mph 3.4 mph 95% 0.02 in 26.00 W/m2
10:14 35.3 °F 34 °F 29.74 in ENE 6.9 mph 3.6 mph 95% 0.03 in 28.00 W/m2
10:19 35.3 °F 34 °F 29.74 in East 4.6 mph 2.4 mph 95% 0.02 in 23.00 W/m2
10:24 35.4 °F 33.8 °F 29.74 in East 5.8 mph 2.3 mph 94% 0.02 in 21.00 W/m2
10:29 35.5 °F 34.2 °F 29.74 in East 1 mph 1.1 mph 95% 0.03 in 23.00 W/m2
10:34 35.6 °F 34.3 °F 29.74 in ENE 2 mph 1 mph 95% 0.04 in 25.00 W/m2
10:39 35.6 °F 34.3 °F 29.75 in ESE 2.3 mph 0.8 mph 95% 0.03 in 23.00 W/m2
10:44 35.7 °F 34.4 °F 29.74 in Calm     95% 0.05 in 18.00 W/m2
10:49 35.8 °F 34.5 °F 29.73 in East 3.5 mph 0.3 mph 95% 0.05 in 18.00 W/m2
10:54 35.9 °F 34.6 °F 29.73 in Calm     95% 0.06 in 18.00 W/m2
10:59 35.9 °F 34.6 °F 29.73 in Calm     95% 0.07 in 18.00 W/m2
11:04 36 °F 34.7 °F 29.71 in Calm     95% 0.09 in 21.00 W/m2
11:09 36 °F 34.7 °F 29.71 in Calm     95% 0.1 in 21.00 W/m2
11:14 36.1 °F 34.8 °F 29.70 in Calm     95% 0.1 in 21.00 W/m2
11:19 36.2 °F 34.9 °F 29.69 in Calm   0.8 mph 95% 0.11 in 23.00 W/m2
11:24 36.2 °F 34.9 °F 29.68 in NE 3.5 mph 2.2 mph 95% 0.12 in 26.00 W/m2
11:29 36.2 °F 34.9 °F 29.67 in ENE 5 mph 3.9 mph 95% 0.12 in 26.00 W/m2
11:34 36.2 °F 34.9 °F 29.68 in ENE 4.6 mph 3.1 mph 95% 0.12 in 21.00 W/m2
11:39 36.3 °F 35 °F 29.67 in NE 3.5 mph 0.8 mph 95% 0.12 in 18.00 W/m2
11:44 36.4 °F 35.1 °F 29.66 in NE 4.6 mph 1.7 mph 95% 0.11 in 16.00 W/m2
11:49 36.4 °F 35.1 °F 29.65 in ENE 3.5 mph 2.4 mph 95% 0.13 in 16.00 W/m2
11:54 36.5 °F 35.2 °F 29.64 in NE 5.8 mph 3.2 mph 95% 0.13 in 21.00 W/m2
11:59 36.6 °F 35.3 °F 29.64 in NE 3.5 mph 2.7 mph 95% 0.14 in 19.00 W/m2
12:04 36.7 °F 35.4 °F 29.62 in ENE 6.9 mph 4.4 mph 95% 0.13 in 23.00 W/m2
12:09 36.8 °F 35.5 °F 29.62 in ENE 4.6 mph 1.3 mph 95% 0.13 in 21.00 W/m2
12:14 37.1 °F 35.8 °F 29.62 in NE 4 mph 1.1 mph 95% 0.13 in 28.00 W/m2
12:19 37.2 °F 35.9 °F 29.60 in NE 6.9 mph 4.3 mph 95% 0.13 in 39.00 W/m2
12:24 37.3 °F 36 °F 29.60 in ENE 9.2 mph 4.6 mph 95% 0.13 in 35.00 W/m2
12:29 37.5 °F 36.2 °F 29.59 in East 6.9 mph 3.2 mph 95% 0.12 in 32.00 W/m2
12:34 37.6 °F 36.3 °F 29.59 in NNE 3.5 mph 2.7 mph 95% 0.12 in 26.00 W/m2
12:39 37.8 °F 36.5 °F 29.60 in Calm     95% 0.13 in 23.00 W/m2
12:44 37.9 °F 36.6 °F 29.61 in Calm     95% 0.12 in 16.00 W/m2
12:49 38 °F 36.7 °F 29.58 in NNE 5 mph 3.6 mph 95% 0.12 in 37.00 W/m2
12:54 37.9 °F 36.6 °F 29.57 in NE 5 mph 2.9 mph 95% 0.13 in 30.00 W/m2
12:59 37.9 °F 36.6 °F 29.52 in ENE 9.2 mph 7.2 mph 95% 0.11 in 51.00 W/m2
13:04 38 °F 36.7 °F 29.51 in NE 10.4 mph 7.7 mph 95% 0.1 in 95.00 W/m2
13:09 38.3 °F 37 °F 29.50 in NE 10.4 mph 6.5 mph 95% 0.1 in 70.00 W/m2
13:14 38.5 °F 37.2 °F 29.50 in ENE 8.1 mph 4.7 mph 95% 0.09 in 33.00 W/m2
13:19 38.6 °F 37.3 °F 29.51 in ENE 6.9 mph 5.6 mph 95% 0.08 in 32.00 W/m2
13:24 38.7 °F 37.4 °F 29.54 in Calm     95% 0.07 in 19.00 W/m2
13:29 38.7 °F 37.4 °F 29.55 in East 3.5 mph   95% 0.07 in 12.00 W/m2
13:34 38.8 °F 37.5 °F 29.54 in East 6.9 mph 5.3 mph 95% 0.06 in 9.00 W/m2
13:39 38.9 °F 37.6 °F 29.55 in East 4.6 mph 0.8 mph 95% 0.05 in 21.00 W/m2
13:44 38.9 °F 37.6 °F 29.58 in Calm     95% 0.06 in 14.00 W/m2
13:49 39 °F 37.7 °F 29.60 in Calm     95% 0.07 in 12.00 W/m2
13:54 39.2 °F 37.9 °F 29.59 in Calm     95% 0.08 in 25.00 W/m2
13:59 39.4 °F 38.1 °F 29.59 in Calm     95% 0.1 in 21.00 W/m2
14:04 39.6 °F 38.3 °F 29.57 in Calm     95% 0.12 in 33.00 W/m2
14:09 39.5 °F 38.2 °F 29.57 in Calm     95% 0.12 in 16.00 W/m2
14:14 39.1 °F 37.8 °F 29.53 in NE 5 mph 4 mph 95% 0.13 in 79.00 W/m2
14:19 39 °F 37.7 °F 29.52 in NE 6.9 mph 5.8 mph 95% 0.13 in 72.00 W/m2
14:24 39.1 °F 37.8 °F 29.51 in NE 6 mph 4.5 mph 95% 0.13 in 62.00 W/m2
14:29 39 °F 37.7 °F 29.48 in NE 9.2 mph 6.3 mph 95% 0.13 in 69.00 W/m2
14:34 39.1 °F 37.8 °F 29.49 in NNE 6.9 mph 4.5 mph 95% 0.13 in 51.00 W/m2
14:39 39.1 °F 37.8 °F 29.49 in NE 7 mph 4.2 mph 95% 0.13 in 46.00 W/m2
14:44 39.1 °F 37.8 °F 29.46 in NE 9.2 mph 7.6 mph 95% 0.12 in 69.00 W/m2
14:49 39.2 °F 37.9 °F 29.46 in NE 10.4 mph 6.1 mph 95% 0.09 in 56.00 W/m2
14:54 39.3 °F 38 °F 29.46 in ENE 9.2 mph 6.2 mph 95% 0.06 in 49.00 W/m2
14:59 39.3 °F 38 °F 29.47 in ENE 7 mph 5.3 mph 95% 0.04 in 23.00 W/m2
15:04 39.3 °F 38 °F 29.48 in ENE 6.9 mph 3.9 mph 95% 0.02 in 40.00 W/m2
15:09 39.3 °F 38 °F 29.47 in ENE 4.6 mph   95% 0.01 in 28.00 W/m2
15:14 39.3 °F 38 °F 29.46 in Calm     95% 0 in 37.00 W/m2
15:19 39.3 °F 38 °F 29.46 in Calm     95% 0 in 21.00 W/m2
15:24 39.3 °F 38 °F 29.45 in ENE 4 mph 3.6 mph 95% 0 in 12.00 W/m2
15:29 39.2 °F 37.9 °F 29.45 in ENE 4 mph 2.5 mph 95% 0 in 23.00 W/m2
15:34 39.3 °F 38 °F 29.45 in ENE 4 mph 3.6 mph 95% 0 in 23.00 W/m2
15:39 39.2 °F 37.9 °F 29.43 in Calm     95% 0 in 18.00 W/m2
15:44 39.2 °F 37.9 °F 29.45 in Calm     95% 0 in 11.00 W/m2
15:49 39.2 °F 37.9 °F 29.47 in Calm     95% 0 in 5.00 W/m2
15:54 39.3 °F 38 °F 29.49 in Calm     95% 0 in 0.00 W/m2
15:59 39.5 °F 38.2 °F 29.50 in Calm     95% 0 in 0.00 W/m2
16:04 39.7 °F 38.4 °F 29.50 in Calm     95% 0 in 5.00 W/m2
16:09 39.8 °F 38.5 °F 29.51 in Calm     95% 0 in 0.00 W/m2
16:14 39.9 °F 38.6 °F 29.51 in Calm     95% 0 in 0.00 W/m2
16:19 40.1 °F 38.8 °F 29.50 in Calm     95% 0 in 0.00 W/m2
16:24 40.1 °F 38.8 °F 29.50 in Calm     95% 0 in 0.00 W/m2
16:29 40.2 °F 38.9 °F 29.51 in Calm     95% 0 in 0.00 W/m2
16:34 40.2 °F 38.9 °F 29.51 in Calm     95% 0 in 0.00 W/m2
16:39 40.2 °F 38.9 °F 29.52 in WNW 3.5 mph 0.5 mph 95% 0.01 in 0.00 W/m2
16:44 40.1 °F 38.8 °F 29.52 in WNW 1.2 mph   95% 0.01 in 0.00 W/m2
16:49 40.1 °F 38.8 °F 29.52 in WNW 2 mph 0.6 mph 95% 0.01 in 0.00 W/m2
16:54 40 °F 38.7 °F 29.52 in WNW 3.5 mph 0.3 mph 95% 0.02 in 0.00 W/m2
16:59 39.9 °F 38.6 °F 29.53 in WNW 3.5 mph   95% 0.02 in 0.00 W/m2
17:04 39.8 °F 38.5 °F 29.53 in WNW 2.3 mph 0.3 mph 95% 0.02 in 0.00 W/m2
17:09 39.7 °F 38.4 °F 29.54 in NW 3.5 mph 1.5 mph 95% 0.03 in 0.00 W/m2
17:14 39.6 °F 38.3 °F 29.55 in NW 4.6 mph 3.7 mph 95% 0.03 in 0.00 W/m2
17:19 39.6 °F 38.3 °F 29.55 in WNW 4 mph 2 mph 95% 0.03 in 0.00 W/m2
17:24 39.5 °F 38.2 °F 29.55 in NW 6.9 mph 4.8 mph 95% 0.03 in 0.00 W/m2
17:29 39.4 °F 38.1 °F 29.55 in NW 3.5 mph 3.7 mph 95% 0.05 in 0.00 W/m2
17:34 39.4 °F 38.1 °F 29.55 in NNW 8.1 mph 4.3 mph 95% 0.05 in 0.00 W/m2
17:39 39.4 °F 38.1 °F 29.56 in NNW 8.1 mph 6 mph 95% 0.04 in 0.00 W/m2
17:44 39.4 °F 38.1 °F 29.56 in NNW 5.8 mph 3.2 mph 95% 0.06 in 0.00 W/m2
17:49 39.4 °F 38.1 °F 29.56 in NNW 6.9 mph 4.1 mph 95% 0.06 in 0.00 W/m2
17:54 39.3 °F 38 °F 29.56 in NNW 10.4 mph 4.4 mph 95% 0.05 in 0.00 W/m2
17:59 39.3 °F 38 °F 29.56 in North 11.5 mph 6.8 mph 95% 0.05 in 0.00 W/m2
18:04 39.2 °F 37.9 °F 29.57 in NNW 11.5 mph 4.6 mph 95% 0.05 in 0.00 W/m2
18:09 39.2 °F 37.9 °F 29.57 in NNW 8.1 mph 4.2 mph 95% 0.04 in 0.00 W/m2
18:14 39.2 °F 37.9 °F 29.57 in NNW 9.2 mph 4.7 mph 95% 0.04 in 0.00 W/m2
18:19 39.0 °F 37.7 °F 29.57 in NNW 13.8 mph 7.0 mph 95% 0.04 in 0.00 W/m2
18:24 39.0 °F 37.7 °F 29.58 in WNW 8.1 mph 4.0 mph 95% 0.04 in 0.00 W/m2
18:29 38.9 °F 37.6 °F 29.59 in NNW 8.1 mph 6.5 mph 95% 0.02 in 0.00 W/m2
18:34 38.8 °F 37.5 °F 29.59 in NNW 5.8 mph 2.9 mph 95% 0.02 in 0.00 W/m2
18:39 38.9 °F 37.6 °F 29.60 in NW 6.9 mph 2.2 mph 95% 0.02 in 0.00 W/m2
18:44 38.9 °F 37.6 °F 29.61 in NNW 4.6 mph 2.8 mph 95% 0.00 in 0.00 W/m2
18:49 38.8 °F 37.5 °F 29.62 in NW 6.9 mph 2.5 mph 95% 0.00 in 0.00 W/m2
18:54 38.8 °F 37.5 °F 29.63 in WNW 5.8 mph 3.1 mph 95% 0.00 in 0.00 W/m2
18:59 38.8 °F 37.5 °F 29.63 in NW 6.9 mph 2.6 mph 95% 0.00 in 0.00 W/m2
19:04 38.7 °F 37.4 °F 29.64 in NNW 6.9 mph 4.3 mph 95% 0.00 in 0.00 W/m2
19:09 38.7 °F 37.4 °F 29.64 in NW 3.5 mph 2.8 mph 95% 0.00 in 0.00 W/m2
19:14 38.7 °F 37.4 °F 29.66 in WNW 4.6 mph 3.1 mph 95% 0.00 in 0.00 W/m2
19:19 38.7 °F 37.4 °F 29.67 in NW 3.5 mph 2.6 mph 95% 0.00 in 0.00 W/m2
19:24 38.7 °F 37.4 °F 29.68 in WNW 3.5 mph 3.5 mph 95% 0.00 in 0.00 W/m2
19:29 38.8 °F 37.5 °F 29.69 in WNW 6.9 mph 3.2 mph 95% 0.00 in 0.00 W/m2
19:34 38.8 °F 37.5 °F 29.70 in WNW 6.9 mph 5.7 mph 95% 0.00 in 0.00 W/m2
19:39 38.8 °F 37.5 °F 29.70 in North 5.8 mph 3.2 mph 95% 0.00 in 0.00 W/m2
19:44 38.8 °F 37.5 °F 29.71 in West 9.2 mph 5.3 mph 95% 0.01 in 0.00 W/m2
19:49 38.8 °F 37.5 °F 29.71 in NW 9.2 mph 5.2 mph 95% 0.01 in 0.00 W/m2
19:54 38.7 °F 37.4 °F 29.72 in North 7.0 mph 3.6 mph 95% 0.02 in 0.00 W/m2
19:59 38.7 °F 37.4 °F 29.73 in NW 6.9 mph 4.6 mph 95% 0.03 in 0.00 W/m2
20:04 38.6 °F 37.3 °F 29.74 in WNW 4.6 mph 3.7 mph 95% 0.03 in 0.00 W/m2
20:09 38.4 °F 37.1 °F 29.75 in WNW 9.2 mph 4.7 mph 95% 0.03 in 0.00 W/m2
20:14 38.4 °F 37.1 °F 29.75 in WNW 8.1 mph 2.6 mph 95% 0.03 in 0.00 W/m2
20:19 38.3 °F 37.0 °F 29.75 in NW 8.1 mph 4.1 mph 95% 0.04 in 0.00 W/m2
20:24 38.3 °F 37.0 °F 29.76 in North 10.4 mph 6.0 mph 95% 0.04 in 0.00 W/m2
20:29 38.2 °F 36.9 °F 29.75 in WNW 8.1 mph 3.9 mph 95% 0.04 in 0.00 W/m2
20:34 38.1 °F 36.8 °F 29.76 in NW 9.2 mph 3.5 mph 95% 0.04 in 0.00 W/m2
20:39 38.1 °F 36.8 °F 29.77 in North 8.1 mph 6.6 mph 95% 0.04 in 0.00 W/m2
20:44 38.0 °F 36.7 °F 29.78 in WNW 11.5 mph 5.2 mph 95% 0.03 in 0.00 W/m2
20:49 38.0 °F 36.7 °F 29.79 in WNW 6.9 mph 4.8 mph 95% 0.03 in 0.00 W/m2
20:54 38.0 °F 36.7 °F 29.79 in NW 6.9 mph 5.2 mph 95% 0.02 in 0.00 W/m2
20:59 38.0 °F 36.7 °F 29.79 in NW 9.2 mph 3.2 mph 95% 0.01 in 0.00 W/m2
21:04 38.0 °F 36.7 °F 29.79 in NNW 5.8 mph 4.8 mph 95% 0.01 in 0.00 W/m2
21:09 37.9 °F 36.6 °F 29.80 in NNW 6.9 mph 3.0 mph 95% 0.01 in 0.00 W/m2
21:14 37.9 °F 36.6 °F 29.81 in NW 8.1 mph 4.1 mph 95% 0.02 in 0.00 W/m2
21:19 37.6 °F 36.3 °F 29.81 in NNW 6.9 mph 2.9 mph 95% 0.01 in 0.00 W/m2
21:24 37.4 °F 36.1 °F 29.81 in NW 6.0 mph 5.4 mph 95% 0.01 in 0.00 W/m2
21:29 37.3 °F 36.0 °F 29.83 in NW 8.1 mph 4.8 mph 95% 0.01 in 0.00 W/m2
21:34 37.2 °F 35.9 °F 29.84 in NW 6.9 mph 4.0 mph 95% 0.01 in 0.00 W/m2
21:39 37.2 °F 35.9 °F 29.85 in WNW 5.8 mph 2.4 mph 95% 0.01 in 0.00 W/m2
21:44 37.2 °F 35.9 °F 29.86 in WNW 8.1 mph 4.7 mph 95% 0.01 in 0.00 W/m2
21:49 37.2 °F 35.9 °F 29.86 in NW 6.0 mph 2.6 mph 95% 0.01 in 0.00 W/m2
21:54 37.2 °F 35.9 °F 29.86 in NW 4.6 mph 2.0 mph 95% 0.01 in 0.00 W/m2
21:59 37.1 °F 35.8 °F 29.86 in WNW 6.9 mph 2.9 mph 95% 0.01 in 0.00 W/m2
22:04 37.1 °F 35.8 °F 29.87 in WNW 10.4 mph 3.1 mph 95% 0.01 in 0.00 W/m2
22:09 37.1 °F 35.8 °F 29.87 in NW 10.4 mph 3.9 mph 95% 0.01 in 0.00 W/m2
22:14 37.1 °F 35.8 °F 29.88 in WNW 4.6 mph 2.0 mph 95% 0.00 in 0.00 W/m2
22:19 37.1 °F 35.8 °F 29.88 in NW 5.8 mph 4.1 mph 95% 0.00 in 0.00 W/m2
22:24 37.0 °F 35.7 °F 29.89 in WNW 6.9 mph 2.6 mph 95% 0.00 in 0.00 W/m2
22:29 37.0 °F 35.7 °F 29.89 in WNW 6.9 mph 3.2 mph 95% 0.00 in 0.00 W/m2
22:34 37.0 °F 35.7 °F 29.89 in NW 5.8 mph 3.9 mph 95% 0.00 in 0.00 W/m2
22:39 37.0 °F 35.7 °F 29.90 in West 4.6 mph 3.9 mph 95% 0.00 in 0.00 W/m2
22:44 37.0 °F 35.7 °F 29.91 in WNW 3.5 mph 2.5 mph 95% 0.00 in 0.00 W/m2
22:49 37.0 °F 35.7 °F 29.91 in NW 3.5 mph 3.0 mph 95% 0.00 in 0.00 W/m2
22:54 36.9 °F 35.6 °F 29.90 in West 3.5 mph 2.1 mph 95% 0.00 in 0.00 W/m2
22:59 36.9 °F 35.6 °F 29.91 in West 3.5 mph 2.5 mph 95% 0.00 in 0.00 W/m2
23:04 36.8 °F 35.5 °F 29.92 in NW 4.6 mph 3.0 mph 95% 0.00 in 0.00 W/m2
23:09 36.7 °F 35.4 °F 29.93 in NW 11.5 mph 3.3 mph 95% 0.00 in 0.00 W/m2
23:14 36.6 °F 35.3 °F 29.93 in WNW 4.6 mph 1.4 mph 95% 0.00 in 0.00 W/m2
23:19 36.5 °F 35.2 °F 29.94 in West 4.6 mph 2.0 mph 95% 0.00 in 0.00 W/m2
23:24 36.5 °F 35.2 °F 29.94 in West 5.8 mph 3.2 mph 95% 0.00 in 0.00 W/m2
23:29 36.3 °F 35.0 °F 29.95 in West 3.5 mph 2.3 mph 95% 0.00 in 0.00 W/m2
23:34 36.1 °F 34.8 °F 29.96 in WNW 9.2 mph 5.6 mph 95% 0.00 in 0.00 W/m2
23:39 35.9 °F 34.6 °F 29.96 in NW 6.9 mph 4.2 mph 95% 0.00 in 0.00 W/m2
23:44 35.8 °F 34.5 °F 29.97 in NW 10.4 mph 5.2 mph 95% 0.00 in 0.00 W/m2
23:49 35.7 °F 34.4 °F 29.97 in WNW 6.9 mph 6.7 mph 95% 0.00 in 0.00 W/m2
23:54 35.6 °F 34.3 °F 29.97 in WNW 11.5 mph 4.4 mph 95% 0.00 in 0.00 W/m2
23:59 35.6 °F 34.3 °F 29.97 in NW 8.1 mph 4.1 mph 95% 0.00 in 0.00 W/m2
Bourbonnais, Illinois, USA
Compliments of Weather Underground - 2 mb